Time;durP1;ratioP1;P1;durP2;ratioP2;P2;SDS_P1;SDS_P2;PMS_P1;PMS_P2;Temp;Humidity;BMP_temperature;BMP_pressure;BME280_temperature;BME280_humidity;BME280_pressure;Samples;Min_cycle;Max_cycle;Signal;HPM_P1;HPM_P2
2021/10/03 00:00:48;;;;;;;38.83;20.77;;;;;;;5.81;65.81;101659.68;125395;1099;104216;-80
2021/10/03 00:03:22;;;;;;;40.47;21.57;;;;;;;5.79;65.86;101656.06;125448;1099;104252;-81
2021/10/03 00:05:55;;;;;;;41.00;21.10;;;;;;;5.76;66.71;101662.88;126322;1099;105652;-81
2021/10/03 00:08:26;;;;;;;40.70;20.50;;;;;;;5.73;66.24;101656.51;126294;1099;104619;-80
2021/10/03 00:10:58;;;;;;;39.63;19.97;;;;;;;5.73;66.30;101651.30;126349;1099;104278;-80
2021/10/03 00:13:30;;;;;;;38.43;19.07;;;;;;;5.73;66.29;101649.63;126321;1099;104216;-80
2021/10/03 00:16:02;;;;;;;39.40;20.53;;;;;;;5.75;66.49;101653.23;126274;1098;104169;-80
2021/10/03 00:18:34;;;;;;;40.17;19.50;;;;;;;5.73;66.76;101656.51;126339;1099;104169;-81
2021/10/03 00:21:07;;;;;;;43.47;21.60;;;;;;;5.72;66.40;101658.22;126268;1099;104354;-81
2021/10/03 00:23:39;;;;;;;41.20;21.75;;;;;;;5.69;66.71;101655.39;126344;1099;104156;-81
2021/10/03 00:26:10;;;;;;;40.67;20.77;;;;;;;5.65;66.50;101650.73;126287;1099;104160;-81
2021/10/03 00:28:41;;;;;;;42.00;21.20;;;;;;;5.65;66.39;101653.34;126330;1099;104207;-80
2021/10/03 00:31:12;;;;;;;39.63;20.17;;;;;;;5.61;67.44;101643.52;126285;1098;104362;-80
2021/10/03 00:33:43;;;;;;;39.47;20.60;;;;;;;5.59;66.77;101645.07;125391;1099;104290;-80
2021/10/03 00:36:13;;;;;;;41.43;21.00;;;;;;;5.57;67.00;101642.36;126280;1099;104146;-80
2021/10/03 00:38:44;;;;;;;42.23;20.50;;;;;;;5.57;66.51;101649.27;125320;1099;104143;-81
2021/10/03 00:41:15;;;;;;;42.07;20.00;;;;;;;5.56;66.79;101650.05;125357;1099;104200;-80
2021/10/03 00:43:46;;;;;;;39.80;19.83;;;;;;;5.57;66.13;101650.16;125335;1099;104303;-81
2021/10/03 00:46:17;;;;;;;42.77;20.80;;;;;;;5.58;66.83;101646.78;126092;1099;104178;-81
2021/10/03 00:48:49;;;;;;;44.10;20.37;;;;;;;5.58;67.02;101649.39;125243;1099;104322;-81
2021/10/03 00:51:20;;;;;;;36.23;19.17;;;;;;;5.59;67.01;101645.07;125304;1099;104409;-81
2021/10/03 00:53:51;;;;;;;39.23;20.37;;;;;;;5.59;67.10;101652.88;125345;1097;104383;-81
2021/10/03 00:56:22;;;;;;;38.20;19.30;;;;;;;5.57;66.95;101650.16;126143;1098;104201;-80
2021/10/03 00:58:53;;;;;;;39.77;20.33;;;;;;;5.57;66.77;101647.56;125298;1099;104260;-81
2021/10/03 01:01:24;;;;;;;42.63;20.23;;;;;;;5.57;66.92;101641.46;125269;1099;104184;-81
2021/10/03 01:03:55;;;;;;;39.00;19.83;;;;;;;5.54;67.04;101644.73;125316;1099;104221;-80
2021/10/03 01:06:26;;;;;;;38.67;18.80;;;;;;;5.50;67.17;101650.52;126158;1099;104188;-80
2021/10/03 01:08:57;;;;;;;38.77;19.03;;;;;;;5.48;67.50;101635.57;125342;1099;104348;-80
2021/10/03 01:11:31;;;;;;;39.98;20.30;;;;;;;5.47;67.76;101642.48;126165;1099;104268;-80
2021/10/03 01:14:01;;;;;;;43.90;19.73;;;;;;;5.48;67.61;101641.67;126347;1099;104152;-81
2021/10/03 01:16:32;;;;;;;37.97;18.87;;;;;;;5.47;67.46;101644.16;126275;1099;105642;-80
2021/10/03 01:19:03;;;;;;;41.03;20.30;;;;;;;5.43;68.06;101636.94;126304;1099;104187;-80
2021/10/03 01:21:34;;;;;;;37.30;20.20;;;;;;;5.38;67.31;101633.98;126325;1099;104146;-80
2021/10/03 01:24:06;;;;;;;40.47;19.73;;;;;;;5.35;67.26;101629.45;126260;1099;104678;-80
2021/10/03 01:26:37;;;;;;;40.37;19.40;;;;;;;5.31;67.97;101632.59;126335;1099;104255;-80
2021/10/03 01:29:08;;;;;;;40.20;19.70;;;;;;;5.28;67.27;101627.16;126333;1099;104166;-80
2021/10/03 01:31:38;;;;;;;40.33;20.20;;;;;;;5.25;67.76;101631.24;126347;1099;104210;-81
2021/10/03 01:34:10;;;;;;;38.65;18.90;;;;;;;5.22;68.26;101626.73;126349;1099;104255;-81
2021/10/03 01:36:40;;;;;;;38.47;19.50;;;;;;;5.20;68.00;101623.09;126242;1099;104220;-80
2021/10/03 01:39:12;;;;;;;40.60;19.87;;;;;;;5.17;68.17;101623.78;125310;1102;104178;-80
2021/10/03 01:41:42;;;;;;;38.27;19.87;;;;;;;5.15;67.88;101622.74;125270;1102;104156;-81
2021/10/03 01:44:13;;;;;;;43.70;19.17;;;;;;;5.14;68.06;101622.63;125363;1100;104272;-80
2021/10/03 01:46:45;;;;;;;37.23;19.90;;;;;;;5.10;68.42;101626.70;125251;1102;104293;-80
2021/10/03 01:49:15;;;;;;;41.07;19.83;;;;;;;5.04;68.22;101624.53;125270;1102;107069;-80
2021/10/03 01:51:46;;;;;;;39.90;19.70;;;;;;;4.99;68.77;101636.30;125312;1102;104210;-80
2021/10/03 01:54:17;;;;;;;41.10;19.67;;;;;;;4.96;68.93;101624.76;125291;1102;104201;-80
2021/10/03 01:56:47;;;;;;;40.30;19.90;;;;;;;4.92;68.95;101634.00;125315;1102;104380;-79
2021/10/03 01:59:18;;;;;;;37.37;19.33;;;;;;;4.88;68.66;101629.38;125289;1102;118225;-79
2021/10/03 02:01:49;;;;;;;41.57;21.67;;;;;;;4.88;68.96;101631.97;125265;1102;104294;-79
2021/10/03 02:04:22;;;;;;;40.10;20.37;;;;;;;4.86;68.77;101630.92;125303;1102;104208;-80
2021/10/03 02:06:54;;;;;;;41.57;20.87;;;;;;;4.84;69.29;101624.71;125328;1102;104179;-81
2021/10/03 02:09:29;;;;;;;38.67;20.33;;;;;;;4.81;69.20;101627.97;125283;1102;104380;-81
2021/10/03 02:12:01;;;;;;;38.67;19.80;;;;;;;4.80;68.64;101623.58;126201;1099;104280;-80
2021/10/03 02:14:34;;;;;;;40.37;20.90;;;;;;;4.81;68.63;101621.88;126306;1099;104235;-81
2021/10/03 02:17:06;;;;;;;37.88;19.27;;;;;;;4.84;68.60;101617.80;126360;1099;104155;-80
2021/10/03 02:19:39;;;;;;;35.77;18.50;;;;;;;4.89;68.35;101619.86;126336;1099;104162;-80
2021/10/03 02:22:11;;;;;;;39.87;20.27;;;;;;;4.89;68.80;101620.76;125384;1099;104150;-80
2021/10/03 02:24:41;;;;;;;38.63;20.50;;;;;;;4.89;68.58;101628.56;126361;1099;104801;-80
2021/10/03 02:27:12;;;;;;;34.90;18.93;;;;;;;4.86;69.07;101621.45;126316;1099;104300;-80
2021/10/03 02:29:42;;;;;;;37.83;19.73;;;;;;;4.86;69.47;101626.66;126294;1099;104223;-80
2021/10/03 02:32:13;;;;;;;35.37;18.40;;;;;;;4.85;69.74;101619.63;126338;1099;104143;-80
2021/10/03 02:34:44;;;;;;;39.07;19.60;;;;;;;4.85;69.36;101614.43;126402;1099;104159;-79
2021/10/03 02:37:15;;;;;;;39.70;19.07;;;;;;;4.84;69.35;101612.60;125345;1099;104303;-80
2021/10/03 02:39:46;;;;;;;34.43;18.73;;;;;;;4.85;69.51;101609.22;125428;1099;104137;-80
2021/10/03 02:42:17;;;;;;;35.73;18.77;;;;;;;4.84;69.48;101612.60;125475;1099;104163;-79
2021/10/03 02:44:48;;;;;;;36.10;18.10;;;;;;;4.84;69.46;101619.52;126330;1099;104274;-79
2021/10/03 02:47:19;;;;;;;37.43;18.10;;;;;;;4.80;69.26;101620.98;126333;1099;104146;-80
2021/10/03 02:49:49;;;;;;;33.67;16.90;;;;;;;4.76;69.65;101618.02;126316;1099;104206;-80
2021/10/03 02:52:20;;;;;;;36.50;18.17;;;;;;;4.72;69.85;101626.37;126334;1099;104201;-80
2021/10/03 02:54:51;;;;;;;39.33;19.13;;;;;;;4.68;69.90;101622.63;126319;1099;104329;-81
2021/10/03 02:57:21;;;;;;;40.37;18.70;;;;;;;4.68;69.63;101626.13;126321;1099;104153;-80
2021/10/03 02:59:52;;;;;;;35.53;19.03;;;;;;;4.70;70.03;101623.65;126308;1099;104149;-80
2021/10/03 03:02:23;;;;;;;35.17;18.43;;;;;;;4.70;69.84;101614.95;126329;1099;104147;-79
2021/10/03 03:04:54;;;;;;;35.53;18.23;;;;;;;4.74;69.48;101614.41;126318;1099;104162;-80
2021/10/03 03:07:25;;;;;;;39.80;19.13;;;;;;;4.81;69.48;101621.88;126360;1099;104207;-80
2021/10/03 03:09:55;;;;;;;34.03;18.17;;;;;;;4.86;69.26;101625.72;126280;1099;104162;-80
2021/10/03 03:12:26;;;;;;;35.93;17.83;;;;;;;4.81;69.53;101629.67;126364;1099;104147;-80
2021/10/03 03:14:56;;;;;;;35.50;17.37;;;;;;;4.74;69.84;101624.81;126282;1099;104150;-80
2021/10/03 03:17:27;;;;;;;37.53;17.33;;;;;;;4.68;69.80;101620.93;126344;1099;104341;-80
2021/10/03 03:19:58;;;;;;;35.80;17.77;;;;;;;4.61;69.87;101625.53;126303;1099;105601;-80
2021/10/03 03:22:29;;;;;;;37.00;18.57;;;;;;;4.57;70.63;101631.30;126342;1099;104200;-79
2021/10/03 03:25:00;;;;;;;34.17;17.57;;;;;;;4.49;69.69;101631.59;126331;1099;104586;-80
2021/10/03 03:27:32;;;;;;;33.47;17.87;;;;;;;4.44;69.56;101635.55;126349;1099;104149;-80
2021/10/03 03:30:03;;;;;;;35.27;16.83;;;;;;;4.42;70.37;101628.40;126263;1099;104246;-79
2021/10/03 03:32:34;;;;;;;35.93;17.40;;;;;;;4.38;70.00;101624.66;126359;1099;104200;-79
2021/10/03 03:35:06;;;;;;;36.17;17.83;;;;;;;4.33;70.47;101628.57;126334;1099;104204;-80
2021/10/03 03:37:37;;;;;;;31.15;16.95;;;;;;;4.31;70.50;101623.25;125463;1099;104152;-80
2021/10/03 03:40:15;;;;;;;34.80;18.33;;;;;;;4.30;70.01;101623.13;125885;1099;103221;-80
2021/10/03 03:42:46;;;;;;;32.73;17.37;;;;;;;4.31;70.27;101625.84;126310;1099;104274;-80
2021/10/03 03:45:17;;;;;;;34.07;17.50;;;;;;;4.34;70.16;101630.39;126342;1099;104165;-80
2021/10/03 03:47:48;;;;;;;35.30;17.30;;;;;;;4.34;70.40;101637.30;125411;1099;104181;-80
2021/10/03 03:50:19;;;;;;;34.37;17.57;;;;;;;4.30;70.65;101637.05;125691;1099;104169;-80
2021/10/03 03:52:50;;;;;;;34.43;16.77;;;;;;;4.28;70.68;101637.70;126361;1099;104829;-80
2021/10/03 03:55:20;;;;;;;34.93;17.47;;;;;;;4.26;71.01;101645.38;126314;1099;104152;-80
2021/10/03 03:57:54;;;;;;;32.30;18.07;;;;;;;4.26;69.89;101645.38;126384;1099;104153;-81
2021/10/03 04:00:24;;;;;;;37.90;17.27;;;;;;;4.26;70.71;101645.38;125949;1098;104156;-80
2021/10/03 04:02:55;;;;;;;35.63;17.33;;;;;;;4.22;70.75;101643.31;126390;1098;104146;-80
2021/10/03 04:05:26;;;;;;;33.17;17.37;;;;;;;4.19;70.19;101648.30;126374;1099;104188;-81
2021/10/03 04:07:57;;;;;;;33.43;17.00;;;;;;;4.18;70.65;101646.47;126296;1099;104280;-80
2021/10/03 04:10:27;;;;;;;31.63;17.03;;;;;;;4.17;70.70;101647.24;126343;1099;104248;-80
2021/10/03 04:12:58;;;;;;;37.57;18.27;;;;;;;4.16;70.45;101642.86;126329;1099;104146;-81
2021/10/03 04:15:29;;;;;;;37.95;17.15;;;;;;;4.16;70.71;101649.72;126365;1099;104261;-81
2021/10/03 04:18:02;;;;;;;34.63;17.43;;;;;;;4.16;71.00;101653.24;126328;1098;104386;-80
2021/10/03 04:20:33;;;;;;;37.17;18.30;;;;;;;4.18;70.88;101662.05;126271;1099;104171;-80
2021/10/03 04:23:03;;;;;;;34.80;18.73;;;;;;;4.19;70.95;101663.88;126356;1099;104251;-80
2021/10/03 04:25:34;;;;;;;37.13;18.50;;;;;;;4.22;71.05;101664.09;126293;1099;104162;-80
2021/10/03 04:28:05;;;;;;;40.70;19.10;;;;;;;4.27;70.71;101667.06;126370;1099;104188;-80
2021/10/03 04:30:36;;;;;;;39.97;18.40;;;;;;;4.31;70.61;101667.42;126284;1099;104408;-80
2021/10/03 04:33:06;;;;;;;36.83;18.67;;;;;;;4.36;70.59;101670.39;126305;1099;104174;-79
2021/10/03 04:35:37;;;;;;;38.47;19.53;;;;;;;4.39;71.05;101670.64;126355;1099;104222;-81
2021/10/03 04:38:08;;;;;;;42.00;18.50;;;;;;;4.45;71.44;101670.22;126322;1099;104152;-81
2021/10/03 04:40:39;;;;;;;36.20;18.87;;;;;;;4.52;71.10;101672.53;126310;1099;104153;-81
2021/10/03 04:43:09;;;;;;;35.40;17.07;;;;;;;4.56;71.29;101678.88;125430;1099;104254;-80
2021/10/03 04:45:42;;;;;;;32.53;16.47;;;;;;;4.54;71.71;101677.86;126305;1099;104370;-81
2021/10/03 04:48:12;;;;;;;38.80;17.40;;;;;;;4.48;70.95;101686.95;126358;1099;104259;-80
2021/10/03 04:50:43;;;;;;;36.50;16.43;;;;;;;4.44;71.42;101684.00;126305;1099;104192;-80
2021/10/03 04:53:15;;;;;;;32.43;16.33;;;;;;;4.37;70.98;101689.52;126300;1099;104181;-80
2021/10/03 04:55:47;;;;;;;33.23;16.73;;;;;;;4.35;71.64;101681.59;126319;1099;104159;-80
2021/10/03 04:58:18;;;;;;;32.43;16.60;;;;;;;4.37;71.40;101689.52;126271;1099;104306;-80
2021/10/03 05:00:51;;;;;;;31.67;16.67;;;;;;;4.39;71.74;101693.12;125380;1099;104149;-81
2021/10/03 05:03:23;;;;;;;36.00;16.67;;;;;;;4.43;71.57;101700.39;125392;1099;104201;-80
2021/10/03 05:05:54;;;;;;;34.50;16.95;;;;;;;4.46;71.58;101695.44;125411;1099;104181;-80
2021/10/03 05:08:25;;;;;;;33.13;17.43;;;;;;;4.52;71.09;101701.13;126337;1099;104236;-79
2021/10/03 05:14:08;;;;;;;37.70;16.40;;;;;;;4.56;71.59;101700.56;125482;1099;104155;-80
2021/10/03 05:16:39;;;;;;;37.05;15.90;;;;;;;4.58;72.15;101698.09;125422;1099;104364;-80
2021/10/03 05:19:10;;;;;;;36.83;17.30;;;;;;;4.62;72.03;101700.16;126334;1099;104191;-79
2021/10/03 05:21:41;;;;;;;30.23;16.17;;;;;;;4.66;72.35;101697.92;126305;1099;104162;-80
2021/10/03 05:24:11;;;;;;;29.93;15.27;;;;;;;4.70;71.93;101700.76;126303;1098;104160;-80
2021/10/03 05:26:42;;;;;;;29.37;15.13;;;;;;;4.75;72.11;101702.02;126366;1099;104201;-80
2021/10/03 05:29:13;;;;;;;31.17;14.63;;;;;;;4.81;71.81;101702.50;125375;1099;104309;-80
2021/10/03 05:31:44;;;;;;;31.13;14.67;;;;;;;4.85;72.13;101707.16;125360;1099;104302;-80
2021/10/03 05:34:15;;;;;;;30.20;15.57;;;;;;;4.88;72.43;101707.40;126377;1099;104159;-80
2021/10/03 05:36:47;;;;;;;28.23;15.40;;;;;;;4.93;71.88;101705.16;126323;1099;104152;-80
2021/10/03 05:39:17;;;;;;;30.70;15.10;;;;;;;4.98;72.34;101699.50;126322;1098;104214;-80
2021/10/03 05:41:48;;;;;;;34.37;15.20;;;;;;;5.04;72.16;101706.89;126347;1099;104203;-81
2021/10/03 05:44:19;;;;;;;29.77;15.13;;;;;;;5.11;71.89;101705.66;126367;1099;104259;-79
2021/10/03 05:46:50;;;;;;;30.00;14.70;;;;;;;5.18;72.18;101706.24;126359;1099;104146;-80
2021/10/03 05:49:21;;;;;;;34.10;16.20;;;;;;;5.26;72.42;101708.54;126244;1099;104342;-80
2021/10/03 05:51:51;;;;;;;36.13;16.27;;;;;;;5.31;72.78;101708.08;126294;1099;104208;-79
2021/10/03 05:54:22;;;;;;;33.67;15.27;;;;;;;5.39;72.19;101713.87;126334;1099;104229;-80
2021/10/03 05:56:52;;;;;;;31.83;15.67;;;;;;;5.49;72.49;101720.70;125401;1099;104226;-80
2021/10/03 05:59:23;;;;;;;31.27;15.07;;;;;;;5.57;72.54;101711.77;126324;1099;104323;-80
2021/10/03 06:01:54;;;;;;;30.47;15.77;;;;;;;5.62;72.48;101712.11;126271;1099;104364;-79
2021/10/03 06:04:25;;;;;;;32.97;15.70;;;;;;;5.65;72.35;101718.44;126375;1099;104335;-80
2021/10/03 06:06:57;;;;;;;35.70;17.07;;;;;;;5.70;72.40;101722.32;126337;1098;104146;-80
2021/10/03 06:09:28;;;;;;;29.90;15.63;;;;;;;5.76;72.40;101719.25;126361;1099;104152;-81
2021/10/03 06:11:59;;;;;;;32.47;16.90;;;;;;;5.83;72.58;101723.20;126337;1099;104197;-78
2021/10/03 06:14:29;;;;;;;30.80;16.03;;;;;;;5.90;72.62;101718.56;126273;1099;104153;-80
2021/10/03 06:17:00;;;;;;;31.87;15.97;;;;;;;5.99;72.10;101718.38;126321;1099;104202;-79
2021/10/03 06:19:31;;;;;;;32.63;16.43;;;;;;;6.10;72.27;101720.06;126336;1099;104198;-80
2021/10/03 06:22:02;;;;;;;34.90;16.17;;;;;;;6.23;72.67;101726.17;126375;1099;104139;-80
2021/10/03 06:24:35;;;;;;;31.90;16.03;;;;;;;6.33;72.23;101732.95;126269;1099;118927;-80
2021/10/03 06:27:06;;;;;;;31.20;13.87;;;;;;;6.44;72.47;101730.34;126246;1099;104184;-79
2021/10/03 06:29:37;;;;;;;27.03;14.17;;;;;;;6.54;72.31;101723.18;126332;1099;104185;-80
2021/10/03 06:32:08;;;;;;;31.03;13.57;;;;;;;6.68;72.03;101718.95;126362;1099;104153;-80
2021/10/03 06:34:39;;;;;;;26.37;13.33;;;;;;;6.81;72.00;101724.25;126312;1099;104208;-79
2021/10/03 06:37:09;;;;;;;29.73;14.33;;;;;;;6.96;72.11;101719.18;125425;1099;104192;-80
2021/10/03 06:39:40;;;;;;;25.73;13.03;;;;;;;7.12;72.05;101718.53;126292;1099;104254;-79
2021/10/03 06:42:11;;;;;;;26.07;13.40;;;;;;;7.28;71.88;101712.69;125385;1099;104192;-79
2021/10/03 06:44:42;;;;;;;26.97;13.13;;;;;;;7.44;71.72;101710.30;126274;1099;104251;-79
2021/10/03 06:47:12;;;;;;;26.07;12.93;;;;;;;7.60;71.67;101712.22;126185;1099;104296;-79
2021/10/03 06:49:44;;;;;;;25.70;12.27;;;;;;;7.77;71.67;101715.97;126189;1099;104306;-78
2021/10/03 06:52:17;;;;;;;27.70;12.20;;;;;;;7.93;71.16;101707.42;126196;1099;104182;-80
2021/10/03 06:54:48;;;;;;;25.30;12.30;;;;;;;8.10;71.15;101703.30;126097;1099;104232;-79
2021/10/03 06:57:19;;;;;;;26.70;11.67;;;;;;;8.26;71.22;101705.22;126219;1099;104300;-79
2021/10/03 06:59:49;;;;;;;22.40;11.67;;;;;;;8.43;70.49;101706.27;126255;1099;104293;-79
2021/10/03 07:02:24;;;;;;;26.40;12.57;;;;;;;8.62;70.58;101708.39;126189;1098;104684;-79
2021/10/03 07:04:55;;;;;;;23.13;11.50;;;;;;;8.80;70.40;101703.38;126107;1099;104325;-79
2021/10/03 07:07:28;;;;;;;25.73;12.50;;;;;;;8.94;70.87;101699.93;126207;1099;104264;-79
2021/10/03 07:09:58;;;;;;;27.97;12.03;;;;;;;9.12;70.21;101707.98;126207;1099;104240;-79
2021/10/03 07:12:29;;;;;;;23.70;11.43;;;;;;;9.28;70.30;101694.09;126212;1099;104146;-79
2021/10/03 07:15:00;;;;;;;24.27;11.63;;;;;;;9.48;69.67;101695.28;126093;1099;104194;-79
2021/10/03 07:17:30;;;;;;;24.17;10.93;;;;;;;9.62;69.99;101688.23;126183;1099;104159;-79
2021/10/03 07:20:01;;;;;;;23.33;11.27;;;;;;;9.75;69.46;101695.09;126303;1099;104159;-79
2021/10/03 07:22:32;;;;;;;25.87;11.50;;;;;;;9.86;69.47;101695.71;126289;1099;104194;-79
2021/10/03 07:25:04;;;;;;;22.23;10.93;;;;;;;9.99;69.51;101692.09;126238;1099;104328;-79
2021/10/03 07:27:35;;;;;;;28.97;11.80;;;;;;;10.13;69.37;101684.98;126362;1099;104272;-80
2021/10/03 07:30:07;;;;;;;23.10;10.43;;;;;;;10.28;69.18;101701.59;126266;1099;104181;-79
2021/10/03 07:32:38;;;;;;;25.57;10.60;;;;;;;10.41;68.32;101698.88;125454;1099;104245;-79
2021/10/03 07:35:10;;;;;;;24.23;10.63;;;;;;;10.55;68.13;101691.77;126272;1099;104182;-79
2021/10/03 07:37:41;;;;;;;23.27;11.33;;;;;;;10.68;67.39;101689.81;126316;1098;104169;-79
2021/10/03 07:40:17;;;;;;;25.23;10.33;;;;;;;10.82;67.51;101693.19;126302;1099;104713;-81
2021/10/03 07:42:47;;;;;;;23.17;10.87;;;;;;;10.96;68.04;101690.45;126320;1099;104185;-79
2021/10/03 07:45:18;;;;;;;25.97;10.77;;;;;;;11.10;67.38;101688.56;126276;1099;104274;-80
2021/10/03 07:47:49;;;;;;;18.60;9.40;;;;;;;11.25;67.97;101687.55;125380;1099;104204;-78
2021/10/03 07:50:20;;;;;;;23.27;10.30;;;;;;;11.38;67.22;101679.48;125395;1099;104171;-80
2021/10/03 07:52:51;;;;;;;21.83;9.90;;;;;;;11.53;67.23;101683.71;126373;1098;104275;-80
2021/10/03 07:55:28;;;;;;;21.13;9.10;;;;;;;11.66;67.36;101673.00;125323;1099;104313;-80
2021/10/03 07:58:03;;;;;;;21.17;9.03;;;;;;;11.81;66.87;101676.39;126343;1099;104143;-80
2021/10/03 08:00:35;;;;;;;21.13;9.00;;;;;;;11.93;67.12;101676.11;126324;1099;104162;-80
2021/10/03 08:03:06;;;;;;;22.83;10.23;;;;;;;12.06;66.70;101680.27;125435;1099;105308;-79
2021/10/03 08:05:37;;;;;;;19.17;9.63;;;;;;;12.19;66.37;101674.75;126319;1099;104191;-79
2021/10/03 08:08:09;;;;;;;20.80;8.80;;;;;;;12.33;65.86;101680.67;126292;1099;104251;-80
2021/10/03 08:10:41;;;;;;;21.10;9.53;;;;;;;12.47;66.08;101672.53;126395;1098;104226;-80
2021/10/03 08:13:12;;;;;;;20.47;8.67;;;;;;;12.64;65.40;101671.58;126316;1099;104197;-79
2021/10/03 08:15:44;;;;;;;19.43;8.77;;;;;;;12.79;65.01;101666.08;126189;1099;104162;-79
2021/10/03 08:18:15;;;;;;;19.53;8.90;;;;;;;12.93;65.17;101666.70;126244;1099;104263;-80
2021/10/03 08:20:47;;;;;;;22.97;8.80;;;;;;;13.04;65.09;101668.11;126253;1099;104319;-79
2021/10/03 08:23:21;;;;;;;21.80;9.20;;;;;;;13.16;64.94;101670.37;126337;1099;104156;-80
2021/10/03 08:25:52;;;;;;;20.93;8.40;;;;;;;13.27;64.18;101669.09;126262;1099;104133;-79
2021/10/03 08:28:23;;;;;;;22.13;9.47;;;;;;;13.43;64.34;101664.52;126348;1099;104245;-79
2021/10/03 08:30:54;;;;;;;19.57;9.03;;;;;;;13.55;64.33;101661.51;126300;1099;104190;-78
2021/10/03 08:33:24;;;;;;;20.50;9.53;;;;;;;13.69;64.41;101667.36;126295;1099;104146;-80
2021/10/03 08:35:58;;;;;;;21.17;8.67;;;;;;;13.80;64.24;101666.95;126274;1099;104204;-78
2021/10/03 08:38:29;;;;;;;20.57;8.40;;;;;;;13.95;63.41;101660.52;126241;1099;104694;-79
2021/10/03 08:41:07;;;;;;;17.20;7.60;;;;;;;14.08;63.41;101665.43;126353;1099;104188;-78
2021/10/03 08:43:38;;;;;;;17.47;6.83;;;;;;;14.27;63.58;101655.60;126290;1099;104140;-79
2021/10/03 08:46:09;;;;;;;16.13;7.33;;;;;;;14.37;60.38;101648.09;126225;1098;104335;-79
2021/10/03 08:48:39;;;;;;;16.05;7.70;;;;;;;14.52;61.37;101642.52;126325;1099;104603;-79
2021/10/03 08:51:10;;;;;;;16.83;7.17;;;;;;;14.65;61.26;101651.83;126347;1099;104255;-79
2021/10/03 08:53:41;;;;;;;13.93;6.27;;;;;;;14.76;60.24;101646.94;125407;1099;104146;-79
2021/10/03 08:56:12;;;;;;;14.17;6.30;;;;;;;14.82;59.15;101633.03;126274;1099;104298;-80
2021/10/03 08:58:43;;;;;;;19.73;8.67;;;;;;;14.96;59.87;101641.47;126300;1099;104159;-78
2021/10/03 09:01:13;;;;;;;15.37;6.83;;;;;;;15.03;57.20;101638.21;126351;1099;104159;-79
2021/10/03 09:03:45;;;;;;;11.37;5.30;;;;;;;15.16;57.64;101639.53;126335;1099;104258;-78
2021/10/03 09:06:15;;;;;;;13.67;5.50;;;;;;;15.24;57.20;101638.97;126276;1099;105157;-78
2021/10/03 09:08:47;;;;;;;11.97;5.20;;;;;;;15.30;57.65;101635.62;126343;1099;104278;-80
2021/10/03 09:11:19;;;;;;;13.40;4.90;;;;;;;15.43;57.22;101636.96;126295;1099;104647;-79
2021/10/03 09:13:53;;;;;;;13.07;5.00;;;;;;;15.51;57.13;101629.28;126343;1099;104147;-79
2021/10/03 09:16:33;;;;;;;12.58;4.60;;;;;;;15.52;54.99;101633.70;126221;1099;104198;-79
2021/10/03 09:19:13;;;;;;;13.07;5.13;;;;;;;15.70;55.80;101629.03;126349;1099;104175;-78
2021/10/03 09:21:45;;;;;;;14.53;5.60;;;;;;;15.76;53.00;101634.52;125427;1099;104197;-79
2021/10/03 09:24:18;;;;;;;14.40;4.90;;;;;;;15.90;54.33;101631.47;126210;1099;104328;-79
2021/10/03 09:27:03;;;;;;;14.40;5.70;;;;;;;16.01;54.62;101631.81;126187;1099;104168;-79
2021/10/03 09:29:36;;;;;;;11.20;4.93;;;;;;;16.11;55.12;101632.15;126298;1099;104145;-79
2021/10/03 09:32:09;;;;;;;12.33;5.17;;;;;;;16.13;53.53;101616.31;126302;1098;104171;-78
2021/10/03 09:34:46;;;;;;;12.93;4.00;;;;;;;16.25;51.57;101614.04;126321;1099;104281;-78
2021/10/03 09:37:32;;;;;;;8.50;3.83;;;;;;;16.36;49.92;101622.27;126236;1099;104140;-79
2021/10/03 09:40:05;;;;;;;8.30;3.80;;;;;;;16.43;52.27;101618.97;125455;1099;104146;-79
2021/10/03 09:42:37;;;;;;;6.95;3.42;;;;;;;16.48;49.67;101614.69;125395;1099;105206;-79
2021/10/03 09:45:12;;;;;;;6.27;3.47;;;;;;;16.49;50.44;101608.55;126350;1099;104149;-78
2021/10/03 09:47:45;;;;;;;9.43;3.67;;;;;;;16.56;52.12;101606.97;126255;1099;104246;-80
2021/10/03 09:50:17;;;;;;;7.80;3.50;;;;;;;16.66;52.19;101614.34;126323;1099;104181;-79
2021/10/03 09:52:48;;;;;;;5.57;3.50;;;;;;;16.77;51.05;101608.45;125392;1099;104171;-79
2021/10/03 09:55:20;;;;;;;6.50;3.00;;;;;;;16.85;50.13;101609.55;126310;1099;104134;-79
2021/10/03 09:57:50;;;;;;;7.80;2.73;;;;;;;16.89;47.64;101609.72;126298;1099;104142;-79
2021/10/03 10:00:23;;;;;;;7.83;3.67;;;;;;;16.95;47.38;101608.08;126282;1099;104178;-80
2021/10/03 10:02:54;;;;;;;4.60;2.80;;;;;;;17.01;48.79;101597.64;126317;1099;104146;-80
2021/10/03 10:05:27;;;;;;;6.87;3.20;;;;;;;17.07;48.36;101598.69;126324;1099;104201;-80
2021/10/03 10:07:58;;;;;;;7.47;3.00;;;;;;;17.13;48.02;101602.39;125307;1099;104312;-80
2021/10/03 10:10:34;;;;;;;6.33;3.00;;;;;;;17.15;46.80;101590.94;126332;1099;104146;-79
2021/10/03 10:13:11;;;;;;;5.40;3.00;;;;;;;17.19;46.61;101587.52;126307;1099;104156;-79
2021/10/03 10:15:41;;;;;;;5.20;2.70;;;;;;;17.21;46.51;101588.45;125393;1099;104299;-80
2021/10/03 10:18:25;;;;;;;5.13;2.80;;;;;;;17.28;47.31;101578.91;126295;1099;104558;-78
2021/10/03 10:20:56;;;;;;;6.05;2.87;;;;;;;17.35;46.50;101582.61;126322;1099;104178;-78
2021/10/03 10:23:31;;;;;;;7.40;2.93;;;;;;;17.36;46.16;101571.15;125441;1099;104207;-79
2021/10/03 10:26:02;;;;;;;5.07;3.03;;;;;;;17.46;46.82;101582.87;126373;1099;104676;-80
2021/10/03 10:28:42;;;;;;;6.30;3.27;;;;;;;17.51;46.80;101583.88;126227;1099;104299;-80
2021/10/03 10:31:16;;;;;;;6.20;3.00;;;;;;;17.55;43.66;101586.64;125363;1099;104236;-79
2021/10/03 10:34:08;;;;;;;7.93;2.90;;;;;;;17.58;46.31;101580.53;125406;1099;104229;-78
2021/10/03 10:36:52;;;;;;;8.10;2.97;;;;;;;17.64;46.18;101583.33;126338;1099;104284;-80
2021/10/03 10:39:31;;;;;;;;;;;;;;;17.68;44.49;101581.64;126336;1099;104259;-79
2021/10/03 10:42:03;;;;;;;7.83;3.20;;;;;;;17.73;46.06;101564.97;126237;1099;104223;-79
2021/10/03 10:44:45;;;;;;;6.90;3.53;;;;;;;17.82;45.79;101558.95;126297;1099;104227;-79
2021/10/03 10:47:19;;;;;;;8.23;3.17;;;;;;;17.91;45.05;101561.85;126262;1099;104203;-79
2021/10/03 10:49:53;;;;;;;6.57;3.27;;;;;;;17.98;44.85;101560.22;125379;1099;104147;-79
2021/10/03 10:52:34;;;;;;;7.57;3.60;;;;;;;18.01;42.53;101559.41;125383;1098;104165;-79
2021/10/03 10:55:27;;;;;;;6.50;3.40;;;;;;;18.03;43.44;101560.32;126278;1099;104191;-79
2021/10/03 10:58:17;;;;;;;6.73;3.40;;;;;;;18.05;43.99;101559.50;126245;1099;104191;-80
2021/10/03 11:00:59;;;;;;;5.17;2.90;;;;;;;18.09;44.25;101553.41;125362;1099;104136;-80
2021/10/03 11:03:59;;;;;;;6.30;3.03;;;;;;;18.11;43.66;101549.02;125332;1099;104197;-78
2021/10/03 11:06:57;;;;;;;4.63;3.00;;;;;;;18.16;44.00;101546.45;125417;1099;104159;-80
2021/10/03 11:09:29;;;;;;;7.63;3.07;;;;;;;18.21;43.43;101549.21;125439;1099;104197;-77
2021/10/03 11:12:10;;;;;;;4.73;2.83;;;;;;;18.28;42.93;101554.69;125422;1099;104223;-79
2021/10/03 11:14:42;;;;;;;4.30;2.73;;;;;;;18.32;42.87;101548.59;126281;1098;104210;-78
2021/10/03 11:17:14;;;;;;;8.03;2.90;;;;;;;18.38;43.17;101553.11;126253;1099;101937;-78
2021/10/03 11:19:50;;;;;;;3.47;2.53;;;;;;;18.30;42.29;101552.95;126240;1099;104156;-78
2021/10/03 11:22:25;;;;;;;3.80;2.43;;;;;;;18.21;42.59;101546.55;126283;1099;104190;-78
2021/10/03 11:24:58;;;;;;;4.03;2.50;;;;;;;18.14;41.89;101548.20;125420;1099;104265;-77
2021/10/03 11:27:30;;;;;;;4.27;2.33;;;;;;;18.21;42.50;101536.81;126275;1099;104155;-78